Nearby METAR Reports

 

KTEB - Teterboro, New Jersey, USA
Distance from station: ENE 2mi, 4km
Updated: 07/16/2019 8:51am
Clear
Clear
 Wind from varies
Wind: varies 3 mph , 6 km/h
Temperature: 82°F , 28°C
Heat Index: 82°F , 28°C
Dew Point: 61°F , 16°C
Humidity: 48%
Barometer: 30.08 inHg , 1018.6 hPa
Clouds: Clear
Visibility: 10 miles , 16 km
2019/07/16 12:51 KTEB 161251Z VRB03KT 10SM CLR 28/16 A3008 RMK AO2 SLP186 T02780161
KNYC - Nyc/Central Park, New York, USA
Distance from station: SE 8mi, 13km
Updated: 07/16/2019 8:51am
Clear
Clear
 Wind from calm
Wind: Calm
Temperature: 79°F , 26°C
Dew Point: 63°F , 17°C
Humidity: 58%
Barometer: 30.12 inHg , 1020 hPa
Clouds: Clear
Visibility: 10 miles , 16 km
2019/07/16 12:51 KNYC 161251Z AUTO 00000KT 10SM CLR 26/17 A3012 RMK AO2 SLP18 T02610172 $
 
KCDW - Caldwell, New Jersey, USA
Distance from station: WNW 10mi, 17km
Updated: 07/16/2019 8:53am
Clear
Clear
 Wind from S
Wind: S 3 mph , 6 km/h
Temperature: 77°F , 25°C
Dew Point: 63°F , 17°C
Humidity: 61%
Barometer: 30.10 inHg , 1019.3 hPa
Clouds: Clear
Visibility: 10 miles , 16 km
2019/07/16 12:53 KCDW 161253Z 17003KT 10SM CLR 25/17 A3010 RMK AO2 SLP196 T02500172
KLGA - Nyc/La Guardia, New York, USA
Distance from station: ESE 12mi, 19km
Updated: 07/16/2019 8:51am
Few Clouds
Few Clouds
 Wind from NE
Wind: NE 6 mph , 9 km/h
Temperature: 81°F , 27°C
Heat Index: 81°F , 27°C
Dew Point: 57°F , 14°C
Humidity: 45%
Barometer: 30.08 inHg , 1018.6 hPa
Clouds: Few Clouds
Visibility: 10 miles , 16 km
Cloud details: Few Clouds 25000 ft
2019/07/16 12:51 KLGA 161251Z 05005KT 10SM FEW250 27/14 A3008 RMK AO2 SLP186 T02670144
 
KEWR - Newark, New Jersey, USA
Distance from station: SSW 12mi, 20km
Updated: 07/16/2019 8:51am
Mostly cloudy
Mostly cloudy
 Wind from SW
Wind: SW 5 mph , 7 km/h
Temperature: 81°F , 27°C
Heat Index: 82°F , 28°C
Dew Point: 61°F , 16°C
Humidity: 51%
Barometer: 30.09 inHg , 1019 hPa
Clouds: Mostly cloudy
Visibility: 10 miles , 16 km
Cloud details: Few Clouds 20000 ft
Mostly cloudy 25000 ft
2019/07/16 12:51 KEWR 161251Z 22004KT 10SM FEW200 BKN250 27/16 A3009 RMK AO2 SLP188 T02720161
KMMU - Morristown Muni, New Jersey, USA
Distance from station: WSW 18mi, 29km
Updated: 07/16/2019 8:55am
Clear
Clear
 Wind from SSE
Wind: SSE 3 mph , 6 km/h
Temperature: 79°F , 26°C
Dew Point: 66°F , 19°C
Humidity: 65%
Barometer: 30.10 inHg , 1019.3 hPa
Clouds: Clear
Visibility: 10 miles , 16 km
2019/07/16 12:55 KMMU 161255Z 16003KT 10SM SKC 26/19 A3010
 
KJFK - Nyc/Jfk Arpt, New York, USA
Distance from station: SE 23mi, 36km
Updated: 07/16/2019 8:51am
Partly cloudy
Partly cloudy
 Wind from SSW
Wind: SSW 6 mph , 9 km/h
Temperature: 79°F , 26°C
Dew Point: 66°F , 19°C
Humidity: 65%
Barometer: 30.10 inHg , 1019.3 hPa
Clouds: Partly cloudy
Visibility: 10 miles , 16 km
Cloud details: Few Clouds 15000 ft
Partly cloudy 25000 ft
2019/07/16 12:51 KJFK 161251Z 20005KT 10SM FEW150 SCT250 26/19 A3010 RMK AO2 SLP193 T02560194
KHPN - White Plains, New York, USA
Distance from station: NE 25mi, 40km
Updated: 07/16/2019 8:56am
Clear
Clear
 Wind from S
Wind: S 3 mph , 6 km/h
Temperature: 79°F , 26°C
Dew Point: 61°F , 16°C
Humidity: 54%
Barometer: 30.09 inHg , 1019 hPa
Clouds: Clear
Visibility: 10 miles , 16 km
2019/07/16 12:56 KHPN 161256Z 17003KT 10SM CLR 26/16 A3009 RMK AO2 SLP184 T02560156
 
KSMQ - Somerville, New Jersey, USA
Distance from station: WSW 34mi, 55km
Updated: 07/16/2019 8:53am
Clear
Clear
 Wind from calm
Wind: Calm
Temperature: 75°F , 24°C
Dew Point: 66°F , 19°C
Humidity: 74%
Barometer: 30.08 inHg , 1018.6 hPa
Clouds: Clear
Visibility: 9 miles , 14 km
2019/07/16 12:53 KSMQ 161253Z AUTO 00000KT 9SM CLR 24/19 A3008 RMK AO2 SLP185 T02440189
K12N - Andover, New Jersey, USA
Distance from station: WNW 36mi, 57km
Updated: 07/16/2019 8:54am

 Wind from WSW
Wind: WSW 5 mph , 7 km/h
Temperature: 75°F , 24°C
Dew Point: 64°F , 18°C
Humidity: 69%
Barometer: 30.11 inHg , 1019.6 hPa
2019/07/16 12:54 K12N 161254Z AUTO 24004KT 24/18 A3011 RMK AO1 SLP188 T02390183
 
KFRG - Farmingdale, New York, USA
Distance from station: ESE 36mi, 58km
Updated: 07/16/2019 8:53am
Clear
Clear
 Wind from S
Wind: S 5 mph , 7 km/h
Temperature: 79°F , 26°C
Dew Point: 63°F , 17°C
Humidity: 58%
Barometer: 30.09 inHg , 1019 hPa
Clouds: Clear
Visibility: 10 miles , 16 km
2019/07/16 12:53 KFRG 161253Z 17004KT 10SM CLR 26/17 A3009 RMK AO2 SLP187 T02610172
KFWN - Sussex, New Jersey, USA
Distance from station: NW 37mi, 60km
Updated: 07/16/2019 8:53am
Clear
Clear
 Wind from SSW
Wind: SSW 5 mph , 7 km/h
Temperature: 73°F , 23°C
Dew Point: 63°F , 17°C
Humidity: 69%
Barometer: 30.10 inHg , 1019.3 hPa
Clouds: Clear
Visibility: 10 miles , 16 km
2019/07/16 12:53 KFWN 161253Z AUTO 20004KT 10SM CLR 23/17 A3010 RMK AO2 SLP189 T02280172
 
KSWF - Newburgh/Stewart, New York, USA
Distance from station: 0 45mi, 72km
Updated: 07/16/2019 8:45am
Clear
Clear
 Wind from calm
Wind: Calm
Temperature: 75°F , 24°C
Dew Point: 63°F , 17°C
Humidity: 65%
Barometer: 30.10 inHg , 1019.3 hPa
Clouds: Clear
Visibility: 20 miles , 32 km
2019/07/16 12:45 KSWF 161245Z 00000KT 20SM SKC 24/17 A3010
KMGJ - Montgomery, New York, USA
Distance from station: NNW 47mi, 75km
Updated: 07/16/2019 8:54am
Clear
Clear
 Wind from calm
Wind: Calm
Temperature: 73°F , 23°C
Dew Point: 61°F , 16°C
Humidity: 65%
Barometer: 30.09 inHg , 1019 hPa
Clouds: Clear
Visibility: 10 miles , 16 km
2019/07/16 12:54 KMGJ 161254Z AUTO 00000KT 10SM CLR 23/16 A3009 RMK AO2 SLP186 T02280161
 
KBLM - Belmar/Farmdale, New Jersey, USA
Distance from station: S 47mi, 76km
Updated: 07/16/2019 8:56am
Clear
Clear
 Wind from WSW
Wind: WSW 7 mph , 11 km/h
Temperature: 81°F , 27°C
Heat Index: 83°F , 28°C
Dew Point: 66°F , 19°C
Humidity: 62%
Barometer: 30.11 inHg , 1019.6 hPa
Clouds: Clear
Visibility: 10 miles , 16 km
2019/07/16 12:56 KBLM 161256Z AUTO 25006KT 10SM CLR 27/19 A3011 RMK AO2 SLP196 T02670189
KDXR - Danbury, Connecticut, USA
Distance from station: NE 47mi, 76km
Updated: 07/16/2019 8:53am
Clear
Clear
 Wind from calm
Wind: Calm
Temperature: 73°F , 23°C
Dew Point: 63°F , 17°C
Humidity: 69%
Barometer: 30.11 inHg , 1019.6 hPa
Clouds: Clear
Visibility: 10 miles , 16 km
2019/07/16 12:53 KDXR 161253Z 00000KT 10SM CLR 23/17 A3011 RMK AO2 SLP192 T02330167
 
KISP - Islip, New York, USA
Distance from station: E 52mi, 83km
Updated: 07/16/2019 8:56am
Few Clouds
Few Clouds
 Wind from calm
Wind: Calm
Temperature: 81°F , 27°C
Heat Index: 82°F , 28°C
Dew Point: 63°F , 17°C
Humidity: 54%
Barometer: 30.08 inHg , 1018.6 hPa
Clouds: Few Clouds
Visibility: 10 miles , 16 km
Cloud details: Few Clouds 15000 ft
Few Clouds 25000 ft
2019/07/16 12:56 KISP 161256Z 00000KT 10SM FEW150 FEW250 27/17 A3008 RMK AO2 SLP185 T02720167
KBDR - Bridgeport, Connecticut, USA
Distance from station: ENE 54mi, 87km
Updated: 07/16/2019 8:52am
Clear
Clear
 Wind from varies
Wind: varies 3 mph , 6 km/h
Temperature: 79°F , 26°C
Dew Point: 63°F , 17°C
Humidity: 58%
Barometer: 30.08 inHg , 1018.6 hPa
Clouds: Clear
Visibility: 10 miles , 16 km
2019/07/16 12:52 KBDR 161252Z VRB03KT 10SM CLR 26/17 A3008 RMK AO2 SLP186 T02560167
 
KTTN - Trenton, New Jersey, USA
Distance from station: SW 55mi, 88km
Updated: 07/16/2019 8:53am
Clear
Clear
 Wind from SSW
Wind: SSW 5 mph , 7 km/h
Temperature: 77°F , 25°C
Dew Point: 66°F , 19°C
Humidity: 69%
Barometer: 30.09 inHg , 1019 hPa
Clouds: Clear
Visibility: 10 miles , 16 km
2019/07/16 12:53 KTTN 161253Z 21004KT 10SM CLR 25/19 A3009 RMK AO2 SLP183 T02500189
KPOU - Poughkeepsie, New York, USA
Distance from station: N 55mi, 89km
Updated: 07/16/2019 8:53am
Clear
Clear
 Wind from calm
Wind: Calm
Temperature: 73°F , 23°C
Dew Point: 61°F , 16°C
Humidity: 65%
Barometer: 30.08 inHg , 1018.6 hPa
Clouds: Clear
Visibility: 10 miles , 16 km
2019/07/16 12:53 KPOU 161253Z 00000KT 10SM CLR 23/16 A3008 RMK AO2 SLP181 T02280156
 
KNEL - Lakehurst Nas, New Jersey, USA
Distance from station: SSW 59mi, 95km
Updated: 07/16/2019 9:00am
Clear
Clear
 Wind from SW
Wind: SW 7 mph , 11 km/h
Temperature: 81°F , 27°C
Heat Index: 85°F , 29°C
Dew Point: 70°F , 21°C
Humidity: 70%
Barometer: 30.09 inHg , 1019 hPa
Clouds: Clear
Visibility: 10 miles , 16 km
2019/07/16 13:00 KNEL 161300Z 23006KT 10SM CLR 27/21 A3009 RMK AO2 SLP189 T02720206 $
KWRI - Wrightst/Mcguire, New Jersey, USA
Distance from station: SSW 63mi, 102km
Updated: 07/16/2019 8:56am
Clear
Clear
 Wind from W
Wind: W 6 mph , 9 km/h
Temperature: 81°F , 27°C
Heat Index: 84°F , 29°C
Dew Point: 68°F , 20°C
Humidity: 66%
Barometer: 30.09 inHg , 1019 hPa
Clouds: Clear
Visibility: 10 miles , 16 km
2019/07/16 12:56 KWRI 161256Z AUTO 26005KT 10SM CLR 27/20 A3009 RMK AO2 SLP188 T02650196 $
 
KHWV - Shirley, New York, USA
Distance from station: E 64mi, 103km
Updated: 07/16/2019 8:56am
Clear
Clear
 Wind from calm
Wind: Calm
Temperature: 81°F , 27°C
Heat Index: 83°F , 28°C
Dew Point: 64°F , 18°C
Humidity: 58%
Barometer: 30.09 inHg , 1019 hPa
Clouds: Clear
Visibility: 10 miles , 16 km
2019/07/16 12:56 KHWV 161256Z AUTO 00000KT 10SM CLR 27/18 A3009 RMK AO2 SLP187 T02670178
KMJX - Toms River, New Jersey, USA
Distance from station: S 64mi, 104km
Updated: 07/16/2019 8:56am
Clear
Clear
 Wind from W
Wind: W 7 mph , 11 km/h
Temperature: 82°F , 28°C
Heat Index: 86°F , 30°C
Dew Point: 70°F , 21°C
Humidity: 66%
Barometer: 30.12 inHg , 1020 hPa
Clouds: Clear
Visibility: 10 miles , 16 km
2019/07/16 12:56 KMJX 161256Z AUTO 27006KT 10SM CLR 28/21 A3012 RMK AO2 SLP201 T02780206
 
KDYL - Doylestown, Pennsylvania, USA
Distance from station: SW 65mi, 104km
Updated: 07/16/2019 8:54am
Clear
Clear
 Wind from S
Wind: S 3 mph , 6 km/h
Temperature: 79°F , 26°C
Dew Point: 64°F , 18°C
Humidity: 61%
Barometer: 30.11 inHg , 1019.6 hPa
Clouds: Clear
Visibility: 10 miles , 16 km
2019/07/16 12:54 KDYL 161254Z AUTO 18003KT 10SM CLR 26/18 A3011 RMK AO2 SLP189 T02610178
KOXC - Oxford/Waterbury, Connecticut, USA
Distance from station: NE 65mi, 105km
Updated: 07/16/2019 8:51am
Clear
Clear
 Wind from varies
Wind: varies 5 mph , 7 km/h
Temperature: 75°F , 24°C
Dew Point: 61°F , 16°C
Humidity: 61%
Barometer: 30.12 inHg , 1020 hPa
Clouds: Clear
Visibility: 10 miles , 16 km
2019/07/16 12:51 KOXC 161251Z VRB04KT 10SM CLR 24/16 A3012 RMK AO2 SLP204 T02390156
 
KMSV - Monticello, New York, USA
Distance from station: NNW 69mi, 111km
Updated: 07/16/2019 8:56am
Mostly cloudy
Mostly cloudy
 Wind from calm
Wind: Calm
Temperature: 72°F , 22°C
Dew Point: 59°F , 15°C
Humidity: 65%
Barometer: 30.14 inHg , 1020.7 hPa
Clouds: Mostly cloudy
Visibility: 10 miles , 16 km
Cloud details: Mostly cloudy 5000 ft
2019/07/16 12:56 KMSV 161256Z AUTO 00000KT 10SM BKN050 22/15 A3014 RMK AO2 SLP197 T02170150
KHVN - New Haven/Tweed, Connecticut, USA
Distance from station: ENE 70mi, 112km
Updated: 07/16/2019 8:53am
Clear
Clear
 Wind from calm
Wind: Calm
Temperature: 79°F , 26°C
Dew Point: 63°F , 17°C
Humidity: 58%
Barometer: 30.08 inHg , 1018.6 hPa
Clouds: Clear
Visibility: 10 miles , 16 km
2019/07/16 12:53 KHVN 161253Z 00000KT 10SM CLR 26/17 A3008 RMK AO2 SLP186 T02610172
 
KMPO - Mt. Pocono, Pennsylvania, USA
Distance from station: WNW 70mi, 113km
Updated: 07/16/2019 8:53am
Mostly cloudy
Mostly cloudy
 Wind from WSW
Wind: WSW 8 mph , 13 km/h
Temperature: 73°F , 23°C
Dew Point: 61°F , 16°C
Humidity: 65%
Barometer: 30.16 inHg , 1021.3 hPa
Clouds: Mostly cloudy
Visibility: 10 miles , 16 km
Cloud details: Mostly cloudy 4500 ft
2019/07/16 12:53 KMPO 161253Z AUTO 24007KT 10SM BKN045 23/16 A3016 RMK AO2 SLP200 T02280156
KPNE - Philadelphia/Ne, Pennsylvania, USA
Distance from station: SW 72mi, 116km
Updated: 07/16/2019 8:54am
Clear
Clear
 Wind from varies
Wind: varies 3 mph , 6 km/h
Temperature: 81°F , 27°C
Heat Index: 83°F , 28°C
Dew Point: 66°F , 19°C
Humidity: 62%
Barometer: 30.11 inHg , 1019.6 hPa
Clouds: Clear
Visibility: 10 miles , 16 km
2019/07/16 12:54 KPNE 161254Z VRB03KT 10SM CLR 27/19 A3011 RMK AO2 SLP195 T02720194
 
KABE - Allentown, Pennsylvania, USA
Distance from station: W 73mi, 117km
Updated: 07/16/2019 8:51am
Clear
Clear
 Wind from calm
Wind: Calm
Temperature: 79°F , 26°C
Dew Point: 66°F , 19°C
Humidity: 65%
Barometer: 30.11 inHg , 1019.6 hPa
Clouds: Clear
Visibility: 10 miles , 16 km
2019/07/16 12:51 KABE 161251Z 00000KT 10SM CLR 26/19 A3011 RMK AO2 SLP192 T02610189 $
KUKT - Quakertown Arp, Pennsylvania, USA
Distance from station: WSW 74mi, 119km
Updated: 07/16/2019 9:20am
Clear
Clear
 Wind from SW
Wind: SW 6 mph , 9 km/h
Temperature: 79°F , 26°C
Dew Point: 68°F , 20°C
Humidity: 70%
Barometer: 30.12 inHg , 1020 hPa
Clouds: Clear
Visibility: 10 miles , 16 km
2019/07/16 13:20 KUKT 161320Z AUTO 22005KT 10SM CLR 26/20 A3012 RMK A01
 
KVAY - Mount Holly, New Jersey, USA
Distance from station: SSW 75mi, 120km
Updated: 07/16/2019 8:54am

 
Barometer: 30.10 inHg , 1019.3 hPa
2019/07/16 12:54 KVAY 161254Z AUTO A3010 RMK AO2 SLPNO PWINO $
KXLL - Allentown Queen, Pennsylvania, USA
Distance from station: WSW 76mi, 122km
Updated: 07/16/2019 9:15am
Clear
Clear
 Wind from SW
Wind: SW 3 mph , 6 km/h
Temperature: 79°F , 26°C
Dew Point: 64°F , 18°C
Humidity: 61%
Barometer: 30.12 inHg , 1020 hPa
Clouds: Clear
Visibility: 10 miles , 16 km
2019/07/16 13:15 KXLL 161315Z AUTO 23003KT 10SM CLR 26/18 A3012 RMK AO2
 
KFOK - Westhampton Beac, New York, USA
Distance from station: E 77mi, 124km
Updated: 07/16/2019 8:53am
Clear
Clear
 Wind from calm
Wind: Calm
Temperature: 79°F , 26°C
Dew Point: 64°F , 18°C
Humidity: 61%
Barometer: 30.10 inHg , 1019.3 hPa
Clouds: Clear
Visibility: 10 miles , 16 km
2019/07/16 12:53 KFOK 161253Z 00000KT 10SM CLR 26/18 A3010 RMK AO2 SLP193 T02610183
KLOM - Philly Wings F, Pennsylvania, USA
Distance from station: SW 79mi, 128km
Updated: 07/16/2019 9:15am
Clear
Clear
 
Temperature: 81°F , 27°C
Heat Index: 84°F , 29°C
Dew Point: 68°F , 20°C
Humidity: 66%
Barometer: 30.12 inHg , 1020 hPa
Clouds: Clear
Visibility: 10 miles , 16 km
2019/07/16 13:15 KLOM 161315Z AUTO 10SM CLR 27/20 A3012 RMK AO2 T02650199
 
KMMK - Meriden, Connecticut, USA
Distance from station: NE 80mi, 128km
Updated: 07/16/2019 8:53am
Clear
Clear
 Wind from calm
Wind: Calm
Temperature: 77°F , 25°C
Dew Point: 61°F , 16°C
Humidity: 57%
Barometer: 30.09 inHg , 1019 hPa
Clouds: Clear
Visibility: 10 miles , 16 km
2019/07/16 12:53 KMMK 161253Z AUTO 00000KT 10SM CLR 25/16 A3009 RMK AO2 SLP186 T02500156
KPTW - Pottstown, Pennsylvania, USA
Distance from station: WSW 88mi, 141km
Updated: 07/16/2019 8:54am
Clear
Clear
 Wind from calm
Wind: Calm
Temperature: 73°F , 23°C
Dew Point: 64°F , 18°C
Humidity: 74%
Barometer: 30.13 inHg , 1020.3 hPa
Clouds: Clear
Visibility: 9 miles , 14 km
2019/07/16 12:54 KPTW 161254Z AUTO 00000KT 9SM CLR 23/18 A3013 RMK AO2 SLP197 T02330178
 
KSNC - Chester, Connecticut, USA
Distance from station: ENE 90mi, 146km
Updated: 07/16/2019 9:15am
Clear
Clear
 Wind from calm
Wind: Calm
Temperature: 81°F , 27°C
Heat Index: 81°F , 27°C
Dew Point: 59°F , 15°C
Humidity: 48%
Barometer: 30.09 inHg , 1019 hPa
Clouds: Clear
Visibility: 10 miles , 16 km
2019/07/16 13:15 KSNC 161315Z AUTO 00000KT 10SM CLR 27/15 A3009 RMK AO2
KPHL - Philadelphia, Pennsylvania, USA
Distance from station: SW 91mi, 146km
Updated: 07/16/2019 8:54am
Partly cloudy
Partly cloudy
 Wind from S
Wind: S 3 mph , 6 km/h
Temperature: 79°F , 26°C
Dew Point: 66°F , 19°C
Humidity: 65%
Barometer: 30.11 inHg , 1019.6 hPa
Clouds: Partly cloudy
Visibility: 10 miles , 16 km
Cloud details: Partly cloudy 25000 ft
2019/07/16 12:54 KPHL 161254Z 18003KT 10SM SCT250 26/19 A3011 RMK AO2 SLP194 T02610194
 
KAVP - Avoca/Wilkes B., Pennsylvania, USA
Distance from station: WNW 91mi, 147km
Updated: 07/16/2019 8:54am
Clear
Clear
 Wind from SW
Wind: SW 3 mph , 6 km/h
Temperature: 73°F , 23°C
Dew Point: 63°F , 17°C
Humidity: 69%
Barometer: 30.11 inHg , 1019.6 hPa
Clouds: Clear
Visibility: 10 miles , 16 km
2019/07/16 12:54 KAVP 161254Z 22003KT 10SM CLR 23/17 A3011 RMK AO2 SLP188 T02280172 $
KHFD - Hartford/Brainar, Connecticut, USA
Distance from station: NE 96mi, 155km
Updated: 07/16/2019 8:53am
Clear
Clear
 Wind from calm
Wind: Calm
Temperature: 72°F , 22°C
Dew Point: 61°F , 16°C
Humidity: 69%
Barometer: 30.08 inHg , 1018.6 hPa
Clouds: Clear
Visibility: 10 miles , 16 km
2019/07/16 12:53 KHFD 161253Z 00000KT 10SM CLR 22/16 A3008 RMK AO2 SLP186 T02220161
 
KHTO - East Hampton, New York, USA
Distance from station: E 96mi, 155km
Updated: 07/16/2019 9:15am
Clear
Clear
 Wind from calm
Wind: Calm
Temperature: 79°F , 26°C
Dew Point: 64°F , 18°C
Humidity: 61%
Barometer: 30.07 inHg , 1018.3 hPa
Clouds: Clear
Visibility: 10 miles , 16 km
2019/07/16 13:15 KHTO 161315Z AUTO 00000KT 10SM CLR 26/18 A3007 RMK AO2 T02550182
KACY - Atlantic City, New Jersey, USA
Distance from station: SSW 99mi, 160km
Updated: 07/16/2019 8:54am
Clear
Clear
 Wind from WSW
Wind: WSW 6 mph , 9 km/h
Temperature: 82°F , 28°C
Heat Index: 86°F , 30°C
Dew Point: 70°F , 21°C
Humidity: 66%
Barometer: 30.11 inHg , 1019.6 hPa
Clouds: Clear
Visibility: 10 miles , 16 km
2019/07/16 12:54 KACY 161254Z 24005KT 10SM CLR 28/21 A3011 RMK AO2 SLP194 T02780206